Search for airport 
image banner adimage banner adimage banner ad
image banner ad

26CN - Vincent Substation

Located in Acton, United States

ICAO - 26CN, IATA -

Data provided by Airmate  

General information

Coordinates: N34°29'12" W118°6'57"
Elevation is 3244 feet MSL.
Magnetic variation is 14° East
View others Airports in California

Operational data

Special qualification required
Current time UTC:
Current local time:
Weather at : KPMD - Palmdale Usaf Plant 42 ( 16 km )
METAR: KPMD 240753Z AUTO 23009KT 10SM CLR 23/06 A3001 RMK AO2 SLP130 T02280056 403500194
TAF: KPMD 240544Z 2406/2506 19006KT P6SM SKC FM241800 24010KT P6SM SKC FM242100 23017G25KT P6SM SKC FM250400 24012KT P6SM SKC
View NOTAMs / SUP AIP / TFR affecting this airport [VIEW]
Communications frequencies: [VIEW]

Runways:

Airport contact information

Address: Acton United States

Satellite view of 26CN